METAR Data
IDs: Format: Raw Decoded Include TAF

Data at: 2006 UTC 17 Nov 2019

KRZL 171955Z AUTO 00000KT 5SM -RA OVC060 03/00 A2994 RMK AO2